createdAt,value
2023-07-09T00:00:41.927Z,7.00
2023-07-09T00:02:45.970Z,7.32
2023-07-09T00:04:48.860Z,7.88
2023-07-09T00:06:52.942Z,10.00
2023-07-09T00:08:55.766Z,9.07
2023-07-09T00:10:59.626Z,9.27
2023-07-09T00:13:02.450Z,7.50
2023-07-09T00:15:06.408Z,7.57
2023-07-09T00:17:12.479Z,7.55
2023-07-09T00:19:20.036Z,10.55
2023-07-09T00:21:24.930Z,8.38
2023-07-09T00:23:29.228Z,7.97
2023-07-09T00:25:37.356Z,10.32
2023-07-09T00:27:41.552Z,8.73
2023-07-09T00:29:44.907Z,8.27
2023-07-09T00:31:47.918Z,7.05
2023-07-09T00:33:51.305Z,7.70
2023-07-09T00:35:54.109Z,7.28
2023-07-09T00:38:02.100Z,6.93
2023-07-09T00:40:06.666Z,8.00
2023-07-09T00:42:19.105Z,8.32
2023-07-09T00:44:21.952Z,8.18
2023-07-09T00:46:25.545Z,8.50
2023-07-09T00:48:33.640Z,7.60
2023-07-09T00:50:47.705Z,7.30
2023-07-09T00:52:58.395Z,7.32
2023-07-09T00:55:12.193Z,8.27
2023-07-09T00:57:23.228Z,9.05
2023-07-09T00:59:33.136Z,8.20
2023-07-09T01:01:36.824Z,10.15
2023-07-09T01:03:46.430Z,8.55
2023-07-09T01:05:53.501Z,7.70
2023-07-09T01:07:56.222Z,9.07
2023-07-09T01:09:59.745Z,7.10
2023-07-09T01:12:11.501Z,8.40
2023-07-09T01:14:18.864Z,7.32
2023-07-09T01:16:25.969Z,7.82
2023-07-09T01:18:29.303Z,10.40
2023-07-09T01:20:32.588Z,9.15
2023-07-09T01:22:35.429Z,8.18
2023-07-09T01:25:03.748Z,8.52
2023-07-09T01:27:09.096Z,10.75
2023-07-09T01:29:11.831Z,8.23
2023-07-09T01:31:16.378Z,8.27
2023-07-09T01:33:19.781Z,8.50
2023-07-09T01:35:23.490Z,10.40
2023-07-09T01:37:29.286Z,11.65
2023-07-09T01:39:32.583Z,8.88
2023-07-09T01:41:36.063Z,7.72
2023-07-09T01:43:38.874Z,6.88
2023-07-09T01:45:41.971Z,7.95
2023-07-09T01:47:45.863Z,7.57
2023-07-09T01:49:49.149Z,11.85
2023-07-09T01:51:52.262Z,8.27
2023-07-09T01:53:57.191Z,8.50
2023-07-09T01:56:00.185Z,7.72
2023-07-09T01:58:07.041Z,12.43
2023-07-09T02:00:14.867Z,10.25
2023-07-09T02:02:20.786Z,12.60
2023-07-09T02:04:23.587Z,9.32
2023-07-09T02:06:27.961Z,11.30
2023-07-09T02:08:32.626Z,8.48
2023-07-09T02:10:35.473Z,10.55
2023-07-09T02:12:38.845Z,10.68
2023-07-09T02:14:42.997Z,8.50
2023-07-09T02:16:46.266Z,10.23
2023-07-09T02:18:48.785Z,10.95
2023-07-09T02:20:51.821Z,8.82
2023-07-09T02:22:54.479Z,7.70
2023-07-09T02:24:57.234Z,10.15
2023-07-09T02:27:01.992Z,9.25
2023-07-09T02:29:05.017Z,8.77
2023-07-09T02:31:09.504Z,12.43
2023-07-09T02:33:12.900Z,11.27
2023-07-09T02:35:18.031Z,10.20
2023-07-09T02:37:26.451Z,13.52
2023-07-09T02:39:29.071Z,9.82
2023-07-09T02:41:32.077Z,10.23
2023-07-09T02:43:34.870Z,9.90
2023-07-09T02:45:37.894Z,9.32
2023-07-09T02:47:41.048Z,9.25
2023-07-09T02:49:44.546Z,8.45
2023-07-09T02:51:47.324Z,8.27
2023-07-09T02:53:49.982Z,10.75
2023-07-09T02:55:52.621Z,11.88
2023-07-09T02:57:55.745Z,9.07
2023-07-09T02:59:58.432Z,10.38
2023-07-09T03:02:03.644Z,9.00
2023-07-09T03:04:07.045Z,8.85
2023-07-09T03:06:10.880Z,10.10
2023-07-09T03:08:14.011Z,13.05
2023-07-09T03:10:17.514Z,10.07
2023-07-09T03:12:20.599Z,11.43
2023-07-09T03:14:23.925Z,9.60
2023-07-09T03:16:32.282Z,9.27
2023-07-09T03:18:35.072Z,10.13
2023-07-09T03:20:40.334Z,7.47
2023-07-09T03:22:43.252Z,8.80
2023-07-09T03:24:46.356Z,14.20
2023-07-09T03:26:49.618Z,9.13
2023-07-09T03:28:52.901Z,9.52
2023-07-09T03:30:57.761Z,9.93
2023-07-09T03:33:01.665Z,9.30
2023-07-09T03:35:04.432Z,9.95
2023-07-09T03:37:07.094Z,11.13
2023-07-09T03:39:09.990Z,10.23
2023-07-09T03:41:12.540Z,12.05
2023-07-09T03:43:15.243Z,13.35
2023-07-09T03:45:17.964Z,11.23
2023-07-09T03:47:21.367Z,10.30
2023-07-09T03:49:24.512Z,12.35
2023-07-09T03:51:27.347Z,12.75
2023-07-09T03:53:30.190Z,12.68
2023-07-09T03:55:33.511Z,10.23
2023-07-09T03:57:36.886Z,15.43
2023-07-09T03:59:41.168Z,12.00
2023-07-09T04:01:47.747Z,13.05
2023-07-09T04:03:50.913Z,12.05
2023-07-09T04:05:53.731Z,14.48
2023-07-09T04:07:56.729Z,10.57
2023-07-09T04:09:59.697Z,10.35
2023-07-09T04:12:05.268Z,12.52
2023-07-09T04:14:08.876Z,12.93
2023-07-09T04:16:12.777Z,16.30
2023-07-09T04:18:15.267Z,16.73
2023-07-09T04:20:18.414Z,16.20
2023-07-09T04:22:21.586Z,15.45
2023-07-09T04:24:24.561Z,15.80
2023-07-09T04:26:27.593Z,15.23
2023-07-09T04:28:31.806Z,16.13
2023-07-09T04:30:35.162Z,15.82
2023-07-09T04:32:38.902Z,14.38
2023-07-09T04:34:42.696Z,19.02
2023-07-09T04:36:45.350Z,13.93
2023-07-09T04:38:48.082Z,14.23
2023-07-09T04:40:50.763Z,18.40
2023-07-09T04:42:53.858Z,17.27
2023-07-09T04:44:56.818Z,16.17
2023-07-09T04:46:59.373Z,14.32
2023-07-09T04:49:02.207Z,18.13
2023-07-09T04:51:05.152Z,16.80
2023-07-09T04:53:08.672Z,16.45
2023-07-09T04:55:12.190Z,15.48
2023-07-09T04:57:14.973Z,17.20
2023-07-09T04:59:17.627Z,12.70
2023-07-09T05:01:20.655Z,15.88
2023-07-09T05:03:23.760Z,15.18
2023-07-09T05:05:26.883Z,15.43
2023-07-09T05:07:29.971Z,13.93
2023-07-09T05:09:33.226Z,15.32
2023-07-09T05:11:37.592Z,14.32
2023-07-09T05:13:40.394Z,14.38
2023-07-09T05:15:47.516Z,12.75
2023-07-09T05:17:51.149Z,12.70
2023-07-09T05:19:54.118Z,14.02
2023-07-09T05:21:57.254Z,14.35
2023-07-09T05:24:00.168Z,15.05
2023-07-09T05:26:05.806Z,13.50
2023-07-09T05:28:09.360Z,13.57
2023-07-09T05:30:13.105Z,13.43
2023-07-09T05:32:15.539Z,11.55
2023-07-09T05:34:18.963Z,11.52
2023-07-09T05:36:21.503Z,11.48
2023-07-09T05:38:24.374Z,10.00
2023-07-09T05:40:27.353Z,12.45
2023-07-09T05:42:30.076Z,13.07
2023-07-09T05:44:32.653Z,12.38
2023-07-09T05:46:38.085Z,11.27
2023-07-09T05:48:41.279Z,12.20
2023-07-09T05:50:45.449Z,12.07
2023-07-09T05:52:48.878Z,11.85
2023-07-09T05:54:53.604Z,10.23
2023-07-09T05:56:56.298Z,9.98
2023-07-09T05:58:58.926Z,10.90
2023-07-09T06:01:01.885Z,10.70
2023-07-09T06:03:09.162Z,9.38
2023-07-09T06:05:13.551Z,8.60
2023-07-09T06:07:16.904Z,9.02
2023-07-09T06:09:20.086Z,9.85
2023-07-09T06:11:23.141Z,9.32
2023-07-09T06:13:25.946Z,10.15
2023-07-09T06:15:28.829Z,9.15
2023-07-09T06:17:32.019Z,10.23
2023-07-09T06:19:35.810Z,10.00
2023-07-09T06:21:38.489Z,9.68
2023-07-09T06:23:41.402Z,9.70
2023-07-09T06:25:45.608Z,9.88
2023-07-09T06:27:48.146Z,9.88
2023-07-09T06:29:52.090Z,9.43
2023-07-09T06:31:55.808Z,10.05
2023-07-09T06:33:58.368Z,9.85
2023-07-09T06:36:03.232Z,11.48
2023-07-09T06:38:08.281Z,12.60
2023-07-09T06:40:12.316Z,11.25
2023-07-09T06:42:15.088Z,11.43
2023-07-09T06:44:41.979Z,11.05
2023-07-09T06:46:46.638Z,9.85
2023-07-09T06:48:50.030Z,9.35
2023-07-09T06:50:54.880Z,9.82
2023-07-09T06:52:57.685Z,9.90
2023-07-09T06:55:00.529Z,9.63
2023-07-09T06:57:03.628Z,9.80
2023-07-09T06:59:06.182Z,9.60
2023-07-09T07:01:11.553Z,9.60
2023-07-09T07:03:15.558Z,9.10
2023-07-09T07:05:19.608Z,10.30
2023-07-09T07:07:22.178Z,9.80
2023-07-09T07:09:25.950Z,8.40
2023-07-09T07:11:31.912Z,11.23
2023-07-09T07:13:37.878Z,9.63
2023-07-09T07:15:41.682Z,10.77
2023-07-09T07:17:46.245Z,8.85
2023-07-09T07:19:51.223Z,11.38
2023-07-09T07:21:54.930Z,8.85
2023-07-09T07:23:58.114Z,9.32
2023-07-09T07:26:01.449Z,9.90
2023-07-09T07:28:04.966Z,9.63
2023-07-09T07:30:12.543Z,11.23
2023-07-09T07:32:15.799Z,10.43
2023-07-09T07:34:18.781Z,9.05
2023-07-09T07:36:30.265Z,9.00
2023-07-09T07:38:34.456Z,9.00
2023-07-09T07:40:37.579Z,8.32
2023-07-09T07:42:40.657Z,9.15
2023-07-09T07:44:43.823Z,11.32
2023-07-09T07:46:46.743Z,7.80
2023-07-09T07:48:49.846Z,8.88
2023-07-09T07:50:53.486Z,7.90
2023-07-09T07:52:56.421Z,8.40
2023-07-09T07:54:59.236Z,7.45
2023-07-09T07:57:03.454Z,9.00
2023-07-09T07:59:07.175Z,7.70
2023-07-09T08:01:10.382Z,7.38
2023-07-09T08:03:13.984Z,7.05
2023-07-09T08:05:17.377Z,7.18
2023-07-09T08:07:21.311Z,6.57
2023-07-09T08:09:24.082Z,7.10
2023-07-09T08:11:29.695Z,5.78
2023-07-09T08:13:34.851Z,7.45
2023-07-09T08:15:38.388Z,7.40
2023-07-09T08:17:41.605Z,6.65
2023-07-09T08:19:48.862Z,6.18
2023-07-09T08:21:51.626Z,5.72
2023-07-09T08:23:54.413Z,6.65
2023-07-09T08:25:59.375Z,5.82
2023-07-09T08:28:02.485Z,5.93
2023-07-09T08:30:06.042Z,5.20
2023-07-09T08:32:10.028Z,5.20
2023-07-09T08:34:12.609Z,5.75
2023-07-09T08:36:15.290Z,5.18
2023-07-09T08:38:18.229Z,5.90
2023-07-09T08:40:21.822Z,5.35
2023-07-09T08:42:33.616Z,6.22
2023-07-09T08:45:07.922Z,5.97
2023-07-09T08:47:31.915Z,6.55
2023-07-09T08:49:48.256Z,4.90
2023-07-09T08:51:52.540Z,5.63
2023-07-09T08:53:59.607Z,5.68
2023-07-09T08:56:02.567Z,4.95
2023-07-09T08:58:13.614Z,6.05
2023-07-09T09:00:21.194Z,5.05
2023-07-09T09:02:38.251Z,6.22
2023-07-09T09:04:41.816Z,4.70
2023-07-09T09:06:50.355Z,4.78
2023-07-09T09:09:22.868Z,5.10
2023-07-09T09:11:36.853Z,4.78
2023-07-09T09:13:40.696Z,5.75
2023-07-09T09:15:50.872Z,5.88
2023-07-09T09:17:59.857Z,5.53
2023-07-09T09:20:15.508Z,5.57
2023-07-09T09:22:22.869Z,5.45
2023-07-09T09:24:43.280Z,5.55
2023-07-09T09:26:49.585Z,4.80
2023-07-09T09:28:53.819Z,4.82
2023-07-09T09:30:56.551Z,4.65
2023-07-09T09:33:09.881Z,5.38
2023-07-09T09:35:18.606Z,4.40
2023-07-09T09:37:33.323Z,4.10
2023-07-09T09:39:40.300Z,5.40
2023-07-09T09:41:45.577Z,5.35
2023-07-09T09:43:50.767Z,4.82
2023-07-09T09:45:53.980Z,4.50
2023-07-09T09:48:01.903Z,4.40
2023-07-09T09:50:06.050Z,4.70
2023-07-09T09:52:15.801Z,4.15
2023-07-09T09:54:26.708Z,4.68
2023-07-09T09:56:38.508Z,4.75
2023-07-09T09:58:42.867Z,5.28
2023-07-09T10:00:53.528Z,6.45
2023-07-09T10:03:03.522Z,4.72
2023-07-09T10:05:13.080Z,4.95
2023-07-09T10:07:45.318Z,5.50
2023-07-09T10:09:56.703Z,4.68
2023-07-09T10:12:10.390Z,4.90
2023-07-09T10:14:36.550Z,6.80
2023-07-09T10:16:46.399Z,4.07
2023-07-09T10:19:19.680Z,5.47
2023-07-09T10:21:35.901Z,4.30
2023-07-09T10:24:19.423Z,4.50
2023-07-09T10:26:37.696Z,4.78
2023-07-09T10:29:31.442Z,4.70
2023-07-09T10:32:04.818Z,4.55
2023-07-09T10:34:19.698Z,4.50
2023-07-09T10:36:31.163Z,4.70
2023-07-09T10:38:54.848Z,4.72
2023-07-09T10:41:09.282Z,5.07
2023-07-09T10:43:38.859Z,4.43
2023-07-09T10:45:54.221Z,5.63
2023-07-09T10:48:04.453Z,4.65
2023-07-09T10:50:16.470Z,5.00
2023-07-09T10:54:44.382Z,6.18
2023-07-09T10:56:55.058Z,4.85
2023-07-09T10:59:16.649Z,5.97
2023-07-09T11:01:27.478Z,4.90
2023-07-09T11:03:32.904Z,5.30
2023-07-09T11:05:36.090Z,5.57
2023-07-09T11:07:45.525Z,5.05
2023-07-09T11:09:54.270Z,6.20
2023-07-09T11:12:07.303Z,6.20
2023-07-09T11:14:28.408Z,5.35
2023-07-09T11:16:38.126Z,5.72
2023-07-09T11:18:41.768Z,5.53
2023-07-09T11:20:47.214Z,5.40
2023-07-09T11:23:07.435Z,5.47
2023-07-09T11:25:28.512Z,5.32
2023-07-09T11:27:31.107Z,5.43
2023-07-09T11:29:35.088Z,4.95
2023-07-09T11:31:40.688Z,4.72
2023-07-09T11:33:49.284Z,5.57
2023-07-09T11:35:56.239Z,7.20
2023-07-09T11:38:10.059Z,5.13
2023-07-09T11:40:15.307Z,4.70
2023-07-09T11:42:26.979Z,5.05
2023-07-09T11:44:33.122Z,5.78
2023-07-09T11:46:38.652Z,5.60
2023-07-09T11:48:43.518Z,5.10
2023-07-09T11:50:51.221Z,5.25
2023-07-09T11:53:02.636Z,5.38
2023-07-09T11:55:26.139Z,5.63
2023-07-09T11:57:30.370Z,5.25
2023-07-09T11:59:40.628Z,5.75
2023-07-09T12:01:48.631Z,4.90
2023-07-09T12:03:53.237Z,4.90
2023-07-09T12:06:01.226Z,5.07
2023-07-09T12:08:07.938Z,5.70
2023-07-09T12:10:21.476Z,5.60
2023-07-09T12:12:30.462Z,6.20
2023-07-09T12:14:33.357Z,6.28
2023-07-09T12:16:40.922Z,5.43
2023-07-09T12:18:44.589Z,5.30
2023-07-09T12:20:54.152Z,4.90
2023-07-09T12:22:58.481Z,6.15
2023-07-09T12:25:01.420Z,6.15
2023-07-09T12:27:18.608Z,5.32
2023-07-09T12:29:22.314Z,4.70
2023-07-09T12:31:31.806Z,5.60
2023-07-09T12:33:35.099Z,5.32
2023-07-09T12:35:38.067Z,5.28
2023-07-09T12:37:40.912Z,6.28
2023-07-09T12:39:44.363Z,5.63
2023-07-09T12:41:47.911Z,5.40
2023-07-09T12:43:51.289Z,4.97
2023-07-09T12:45:56.799Z,5.15
2023-07-09T12:47:59.765Z,6.75
2023-07-09T12:50:17.114Z,6.15
2023-07-09T12:52:23.105Z,5.22
2023-07-09T12:56:29.654Z,5.68
2023-07-09T12:58:38.067Z,5.65
2023-07-09T13:00:41.482Z,5.78
2023-07-09T13:02:44.867Z,5.30
2023-07-09T13:04:49.320Z,6.47
2023-07-09T13:06:53.136Z,5.72
2023-07-09T13:09:01.425Z,5.55
2023-07-09T13:11:04.689Z,6.18
2023-07-09T13:13:07.857Z,5.82
2023-07-09T13:15:39.494Z,5.85
2023-07-09T13:17:44.004Z,5.10
2023-07-09T13:19:47.174Z,6.28
2023-07-09T13:21:50.000Z,5.68
2023-07-09T13:23:55.976Z,5.07
2023-07-09T13:26:00.033Z,5.80
2023-07-09T13:28:03.250Z,5.38
2023-07-09T13:30:07.383Z,7.00
2023-07-09T13:32:12.445Z,5.97
2023-07-09T13:34:23.228Z,5.53
2023-07-09T13:36:26.324Z,5.70
2023-07-09T13:38:29.308Z,6.60
2023-07-09T13:40:32.321Z,5.78
2023-07-09T13:42:35.945Z,5.75
2023-07-09T13:44:38.544Z,6.10
2023-07-09T13:46:41.890Z,5.53
2023-07-09T13:48:47.891Z,5.72
2023-07-09T13:50:54.150Z,5.50
2023-07-09T13:52:57.354Z,5.70
2023-07-09T13:55:00.438Z,5.57
2023-07-09T13:57:04.529Z,5.80
2023-07-09T13:59:20.908Z,7.40
2023-07-09T14:01:25.962Z,5.57
2023-07-09T14:03:33.155Z,5.53
2023-07-09T14:05:36.100Z,5.07
2023-07-09T14:07:41.991Z,6.00
2023-07-09T14:09:44.913Z,6.68
2023-07-09T14:11:55.821Z,5.88
2023-07-09T14:13:58.636Z,5.30
2023-07-09T14:16:02.444Z,5.05
2023-07-09T14:18:07.260Z,5.78
2023-07-09T14:20:16.599Z,6.35
2023-07-09T14:22:36.130Z,6.25
2023-07-09T14:24:38.700Z,6.35
2023-07-09T14:26:41.276Z,7.47
2023-07-09T14:28:44.781Z,4.97
2023-07-09T14:30:51.864Z,6.05
2023-07-09T14:32:55.375Z,5.93
2023-07-09T14:34:58.220Z,5.78
2023-07-09T14:37:02.742Z,5.63
2023-07-09T14:39:11.611Z,5.05
2023-07-09T14:41:27.920Z,6.88
2023-07-09T14:43:30.900Z,5.65
2023-07-09T14:45:33.791Z,5.75
2023-07-09T14:47:37.280Z,5.57
2023-07-09T14:49:40.156Z,5.25
2023-07-09T14:51:43.377Z,4.82
2023-07-09T14:53:46.246Z,6.40
2023-07-09T14:55:49.237Z,5.78
2023-07-09T14:57:52.021Z,5.38
2023-07-09T14:59:55.658Z,5.50
2023-07-09T15:01:58.487Z,6.72
2023-07-09T15:04:08.386Z,6.15
2023-07-09T15:06:10.952Z,5.57
2023-07-09T15:08:15.948Z,5.40
2023-07-09T15:10:24.732Z,5.15
2023-07-09T15:12:32.246Z,5.20
2023-07-09T15:14:35.239Z,7.78
2023-07-09T15:16:38.164Z,6.88
2023-07-09T15:18:40.981Z,5.63
2023-07-09T15:20:52.009Z,6.15
2023-07-09T15:22:56.553Z,5.13
2023-07-09T15:24:59.341Z,6.95
2023-07-09T15:27:03.558Z,6.28
2023-07-09T15:29:07.368Z,5.78
2023-07-09T15:31:13.622Z,5.93
2023-07-09T15:33:22.887Z,5.30
2023-07-09T15:35:35.553Z,6.93
2023-07-09T15:37:38.337Z,9.95
2023-07-09T15:39:41.333Z,7.22
2023-07-09T15:41:44.774Z,6.15
2023-07-09T15:43:47.416Z,5.78
2023-07-09T15:45:53.220Z,7.82
2023-07-09T15:47:56.117Z,6.70
2023-07-09T15:49:59.253Z,6.03
2023-07-09T15:52:03.383Z,5.60
2023-07-09T15:54:17.562Z,5.28
2023-07-09T15:56:28.823Z,7.03
2023-07-09T15:58:43.582Z,6.57
2023-07-09T16:00:47.412Z,5.22
2023-07-09T16:02:52.115Z,5.57
2023-07-09T16:04:54.795Z,5.50
2023-07-09T16:06:58.018Z,5.10
2023-07-09T16:09:01.210Z,5.07
2023-07-09T16:11:14.218Z,5.95
2023-07-09T16:13:22.945Z,7.68
2023-07-09T16:15:27.508Z,6.78
2023-07-09T16:17:30.431Z,5.18
2023-07-09T16:19:33.624Z,4.82
2023-07-09T16:21:36.562Z,6.05
2023-07-09T16:23:39.476Z,5.65
2023-07-09T16:25:42.178Z,6.05
2023-07-09T16:27:46.114Z,5.80
2023-07-09T16:29:48.703Z,6.22
2023-07-09T16:31:56.657Z,5.18
2023-07-09T16:33:59.977Z,5.47
2023-07-09T16:36:05.823Z,6.40
2023-07-09T16:40:15.305Z,5.30
2023-07-09T16:42:18.406Z,5.38
2023-07-09T16:44:22.808Z,6.20
2023-07-09T16:46:26.227Z,7.38
2023-07-09T16:48:30.006Z,6.28
2023-07-09T16:50:33.690Z,7.78
2023-07-09T16:52:36.408Z,6.70
2023-07-09T16:54:39.535Z,6.03
2023-07-09T16:56:42.933Z,5.63
2023-07-09T16:58:45.725Z,5.55
2023-07-09T17:00:48.788Z,6.78
2023-07-09T17:02:52.507Z,6.07
2023-07-09T17:05:00.609Z,6.13
2023-07-09T17:07:04.549Z,5.03
2023-07-09T17:09:08.011Z,5.97
2023-07-09T17:11:12.954Z,6.35
2023-07-09T17:13:28.888Z,5.90
2023-07-09T17:15:41.199Z,5.15
2023-07-09T17:17:44.307Z,6.30
2023-07-09T17:19:49.526Z,6.28
2023-07-09T17:21:55.659Z,5.60
2023-07-09T17:23:58.890Z,5.65
2023-07-09T17:26:01.671Z,5.97
2023-07-09T17:28:23.989Z,5.75
2023-07-09T17:30:29.968Z,6.95
2023-07-09T17:32:32.962Z,6.30
2023-07-09T17:34:36.511Z,5.45
2023-07-09T17:36:40.552Z,5.50
2023-07-09T17:38:44.049Z,5.72
2023-07-09T17:40:48.427Z,6.03
2023-07-09T17:42:51.767Z,5.13
2023-07-09T17:44:54.521Z,6.38
2023-07-09T17:46:58.045Z,6.25
2023-07-09T17:49:01.574Z,5.22
2023-07-09T17:51:05.275Z,6.22
2023-07-09T17:53:31.162Z,4.78
2023-07-09T17:55:35.423Z,5.70
2023-07-09T17:57:38.816Z,5.93
2023-07-09T17:59:43.996Z,6.10
2023-07-09T18:02:02.825Z,5.35
2023-07-09T18:04:22.647Z,6.22
2023-07-09T18:06:33.310Z,5.97
2023-07-09T18:08:36.501Z,5.35
2023-07-09T18:10:47.207Z,4.72
2023-07-09T18:12:50.246Z,5.82
2023-07-09T18:14:55.886Z,5.53
2023-07-09T18:16:59.334Z,4.95
2023-07-09T18:19:05.390Z,5.13
2023-07-09T18:21:13.860Z,5.43
2023-07-09T18:23:17.776Z,6.18
2023-07-09T18:25:23.047Z,6.28
2023-07-09T18:27:35.654Z,4.95
2023-07-09T18:29:38.504Z,5.57
2023-07-09T18:31:41.655Z,5.30
2023-07-09T18:33:44.955Z,4.85
2023-07-09T18:35:48.004Z,5.45
2023-07-09T18:37:54.228Z,4.80
2023-07-09T18:39:57.153Z,4.75
2023-07-09T18:42:00.005Z,5.65
2023-07-09T18:44:11.507Z,5.68
2023-07-09T18:46:14.933Z,6.85
2023-07-09T18:48:22.484Z,5.53
2023-07-09T18:50:31.479Z,5.70
2023-07-09T18:52:35.061Z,5.88
2023-07-09T18:54:38.329Z,7.35
2023-07-09T18:56:42.027Z,6.32
2023-07-09T18:58:46.440Z,5.38
2023-07-09T19:00:50.954Z,5.97
2023-07-09T19:02:57.331Z,5.28
2023-07-09T19:05:01.811Z,5.93
2023-07-09T19:07:05.289Z,6.18
2023-07-09T19:09:30.407Z,5.75
2023-07-09T19:13:36.597Z,5.57
2023-07-09T19:15:40.904Z,5.97
2023-07-09T19:17:44.973Z,5.13
2023-07-09T19:19:47.933Z,5.65
2023-07-09T19:21:53.166Z,5.68
2023-07-09T19:23:56.032Z,4.55
2023-07-09T19:25:58.889Z,5.22
2023-07-09T19:28:01.886Z,5.90
2023-07-09T19:30:06.854Z,5.28
2023-07-09T19:32:27.680Z,5.43
2023-07-09T19:34:34.306Z,7.72
2023-07-09T19:36:37.543Z,5.20
2023-07-09T19:38:40.233Z,7.63
2023-07-09T19:40:44.100Z,6.18
2023-07-09T19:42:48.334Z,5.28
2023-07-09T19:44:52.347Z,5.55
2023-07-09T19:46:55.582Z,5.47
2023-07-09T19:48:58.405Z,6.82
2023-07-09T19:51:01.231Z,5.53
2023-07-09T19:53:19.345Z,5.45
2023-07-09T19:55:25.391Z,6.13
2023-07-09T19:57:28.111Z,6.88
2023-07-09T19:59:30.969Z,6.10
2023-07-09T20:01:34.077Z,5.68
2023-07-09T20:03:37.791Z,6.68
2023-07-09T20:05:40.894Z,6.30
2023-07-09T20:07:44.210Z,6.05
2023-07-09T20:09:48.491Z,6.07
2023-07-09T20:11:53.130Z,6.28
2023-07-09T20:13:56.447Z,6.65
2023-07-09T20:16:00.216Z,6.35
2023-07-09T20:18:04.001Z,7.18
2023-07-09T20:20:07.078Z,6.53
2023-07-09T20:22:13.692Z,6.45
2023-07-09T20:24:21.664Z,5.85
2023-07-09T20:26:24.545Z,6.10
2023-07-09T20:28:30.057Z,6.70
2023-07-09T20:30:33.263Z,7.22
2023-07-09T20:32:38.708Z,7.10
2023-07-09T20:34:42.093Z,5.95
2023-07-09T20:36:46.112Z,6.75
2023-07-09T20:38:48.940Z,7.72
2023-07-09T20:40:53.252Z,7.93
2023-07-09T20:42:58.381Z,7.78
2023-07-09T20:45:01.437Z,7.95
2023-07-09T20:47:16.050Z,7.55
2023-07-09T20:49:29.098Z,7.93
2023-07-09T20:51:32.005Z,8.20
2023-07-09T20:53:34.790Z,8.57
2023-07-09T20:55:37.738Z,9.45
2023-07-09T20:57:41.285Z,7.97
2023-07-09T20:59:44.643Z,8.85
2023-07-09T21:01:47.600Z,6.97
2023-07-09T21:03:50.712Z,8.40
2023-07-09T21:05:54.711Z,7.97
2023-07-09T21:07:57.324Z,9.93
2023-07-09T21:09:59.988Z,8.73
2023-07-09T21:12:07.903Z,10.60
2023-07-09T21:14:15.357Z,10.88
2023-07-09T21:16:21.270Z,8.05
2023-07-09T21:18:28.145Z,8.27
2023-07-09T21:20:31.029Z,9.60
2023-07-09T21:22:33.389Z,9.20
2023-07-09T21:24:39.292Z,9.55
2023-07-09T21:26:41.966Z,8.00
2023-07-09T21:28:44.572Z,9.48
2023-07-09T21:30:47.188Z,8.02
2023-07-09T21:32:52.325Z,8.35
2023-07-09T21:34:58.614Z,7.82
2023-07-09T21:37:12.001Z,9.90
2023-07-09T21:39:21.938Z,7.72
2023-07-09T21:41:24.310Z,9.23
2023-07-09T21:43:26.864Z,7.57
2023-07-09T21:45:42.490Z,8.30
2023-07-09T21:47:45.482Z,8.13
2023-07-09T21:49:48.231Z,8.27
2023-07-09T21:51:50.950Z,7.90
2023-07-09T21:55:59.640Z,7.82
2023-07-09T21:58:02.305Z,8.90
2023-07-09T22:00:04.976Z,8.43
2023-07-09T22:02:22.170Z,7.88
2023-07-09T22:04:36.290Z,10.88
2023-07-09T22:06:39.486Z,8.80
2023-07-09T22:08:47.876Z,9.05
2023-07-09T22:10:53.340Z,9.05
2023-07-09T22:12:58.188Z,8.85
2023-07-09T22:15:13.483Z,8.38
2023-07-09T22:17:18.055Z,9.02
2023-07-09T22:19:32.071Z,7.57
2023-07-09T22:21:43.747Z,10.43
2023-07-09T22:23:46.519Z,8.15
2023-07-09T22:25:50.268Z,9.43
2023-07-09T22:27:54.127Z,9.02
2023-07-09T22:29:56.932Z,7.60
2023-07-09T22:31:59.546Z,8.32
2023-07-09T22:34:03.417Z,11.73
2023-07-09T22:36:06.829Z,12.07
2023-07-09T22:38:20.449Z,8.68
2023-07-09T22:40:26.418Z,8.88
2023-07-09T22:42:28.827Z,8.10
2023-07-09T22:44:31.776Z,9.15
2023-07-09T22:46:35.890Z,12.00
2023-07-09T22:48:38.434Z,9.52
2023-07-09T22:50:42.562Z,8.35
2023-07-09T22:52:45.979Z,8.50
2023-07-09T22:54:48.674Z,9.85
2023-07-09T22:56:51.943Z,7.93
2023-07-09T22:58:54.578Z,10.35
2023-07-09T23:01:02.456Z,12.77
2023-07-09T23:03:15.623Z,10.10
2023-07-09T23:05:18.604Z,8.63
2023-07-09T23:07:20.932Z,9.80
2023-07-09T23:09:23.413Z,8.68
2023-07-09T23:11:32.933Z,9.70
2023-07-09T23:13:37.479Z,10.18
2023-07-09T23:15:40.408Z,11.25
2023-07-09T23:17:43.956Z,8.90
2023-07-09T23:19:47.233Z,8.93
2023-07-09T23:21:49.871Z,7.60
2023-07-09T23:24:00.021Z,9.40
2023-07-09T23:26:03.271Z,8.27
2023-07-09T23:28:06.988Z,10.82
2023-07-09T23:30:28.073Z,8.65
2023-07-09T23:32:30.595Z,9.93
2023-07-09T23:34:33.191Z,9.25
2023-07-09T23:36:36.263Z,8.88
2023-07-09T23:38:38.869Z,9.75
2023-07-09T23:40:41.374Z,9.10
2023-07-09T23:42:46.359Z,8.77
2023-07-09T23:44:48.771Z,8.93
2023-07-09T23:46:53.315Z,10.00
2023-07-09T23:49:08.813Z,10.73
2023-07-09T23:51:14.826Z,10.13
2023-07-09T23:53:24.614Z,11.35
2023-07-09T23:55:27.281Z,9.75
2023-07-09T23:57:30.176Z,8.95
2023-07-09T23:59:35.659Z,8.05
